sensor_id;sensor_type;location;lat;lon;timestamp;temperature;humidity
15241;DHT22;7723;52.170;9.978;2023-03-01T00:02:09;-3.90;99.90
15241;DHT22;7723;52.170;9.978;2023-03-01T00:04:36;-4.00;99.90
15241;DHT22;7723;52.170;9.978;2023-03-01T00:07:03;-4.00;99.90
15241;DHT22;7723;52.170;9.978;2023-03-01T00:09:31;-4.00;99.90
15241;DHT22;7723;52.170;9.978;2023-03-01T00:11:59;-3.90;99.90
15241;DHT22;7723;52.170;9.978;2023-03-01T00:14:26;-3.90;99.90
15241;DHT22;7723;52.170;9.978;2023-03-01T00:16:53;-4.00;99.90
15241;DHT22;7723;52.170;9.978;2023-03-01T00:19:20;-3.70;99.90
15241;DHT22;7723;52.170;9.978;2023-03-01T00:21:48;-3.80;99.90
15241;DHT22;7723;52.170;9.978;2023-03-01T00:24:15;-4.00;99.90
15241;DHT22;7723;52.170;9.978;2023-03-01T00:26:44;-4.00;99.90
15241;DHT22;7723;52.170;9.978;2023-03-01T00:29:12;-4.00;99.90
15241;DHT22;7723;52.170;9.978;2023-03-01T00:31:39;-4.00;99.90
15241;DHT22;7723;52.170;9.978;2023-03-01T00:34:06;-4.00;99.90
15241;DHT22;7723;52.170;9.978;2023-03-01T00:36:35;-4.10;99.90
15241;DHT22;7723;52.170;9.978;2023-03-01T00:39:04;-4.00;99.90
15241;DHT22;7723;52.170;9.978;2023-03-01T00:41:31;-4.10;99.90
15241;DHT22;7723;52.170;9.978;2023-03-01T00:44:01;-4.00;99.90
15241;DHT22;7723;52.170;9.978;2023-03-01T00:46:29;-4.10;99.90
15241;DHT22;7723;52.170;9.978;2023-03-01T00:48:56;-4.20;99.90
15241;DHT22;7723;52.170;9.978;2023-03-01T00:51:26;-4.20;99.90
15241;DHT22;7723;52.170;9.978;2023-03-01T00:53:54;-4.30;99.90
15241;DHT22;7723;52.170;9.978;2023-03-01T00:56:22;-4.30;99.90
15241;DHT22;7723;52.170;9.978;2023-03-01T00:58:50;-4.30;99.90
15241;DHT22;7723;52.170;9.978;2023-03-01T01:01:21;-4.40;99.90
15241;DHT22;7723;52.170;9.978;2023-03-01T01:03:49;-4.50;99.90
15241;DHT22;7723;52.170;9.978;2023-03-01T01:06:18;-4.60;99.90
15241;DHT22;7723;52.170;9.978;2023-03-01T01:08:46;-4.60;99.90
15241;DHT22;7723;52.170;9.978;2023-03-01T01:11:15;-4.70;99.90
15241;DHT22;7723;52.170;9.978;2023-03-01T01:13:44;-3.90;99.90
15241;DHT22;7723;52.170;9.978;2023-03-01T01:16:12;-4.70;99.90
15241;DHT22;7723;52.170;9.978;2023-03-01T01:18:41;-4.60;99.90
15241;DHT22;7723;52.170;9.978;2023-03-01T01:21:10;-4.70;99.90
15241;DHT22;7723;52.170;9.978;2023-03-01T01:23:38;-4.50;99.90
15241;DHT22;7723;52.170;9.978;2023-03-01T01:26:07;-4.70;99.90
15241;DHT22;7723;52.170;9.978;2023-03-01T01:28:35;-4.60;99.90
15241;DHT22;7723;52.170;9.978;2023-03-01T01:31:03;-4.60;99.90
15241;DHT22;7723;52.170;9.978;2023-03-01T01:33:30;-4.50;99.90
15241;DHT22;7723;52.170;9.978;2023-03-01T01:35:59;-4.50;99.90
15241;DHT22;7723;52.170;9.978;2023-03-01T01:38:26;-4.50;99.90
15241;DHT22;7723;52.170;9.978;2023-03-01T01:40:53;-4.30;99.90
15241;DHT22;7723;52.170;9.978;2023-03-01T01:43:22;-4.60;99.90
15241;DHT22;7723;52.170;9.978;2023-03-01T01:45:51;-4.60;99.90
15241;DHT22;7723;52.170;9.978;2023-03-01T01:48:24;-4.60;99.90
15241;DHT22;7723;52.170;9.978;2023-03-01T01:51:10;-4.30;99.90
15241;DHT22;7723;52.170;9.978;2023-03-01T01:53:38;-4.50;99.90
15241;DHT22;7723;52.170;9.978;2023-03-01T01:56:08;-4.30;99.90
15241;DHT22;7723;52.170;9.978;2023-03-01T01:58:36;-4.70;99.90
15241;DHT22;7723;52.170;9.978;2023-03-01T02:01:04;-4.70;99.90
15241;DHT22;7723;52.170;9.978;2023-03-01T02:03:33;-4.70;99.90
15241;DHT22;7723;52.170;9.978;2023-03-01T02:06:06;-4.70;99.90
15241;DHT22;7723;52.170;9.978;2023-03-01T02:08:38;-4.80;99.90
15241;DHT22;7723;52.170;9.978;2023-03-01T02:11:08;-4.70;99.90
15241;DHT22;7723;52.170;9.978;2023-03-01T02:13:36;-4.60;99.90
15241;DHT22;7723;52.170;9.978;2023-03-01T02:16:04;-4.60;99.90
15241;DHT22;7723;52.170;9.978;2023-03-01T02:18:32;-4.60;99.90
15241;DHT22;7723;52.170;9.978;2023-03-01T02:21:11;-4.30;99.90
15241;DHT22;7723;52.170;9.978;2023-03-01T02:23:42;-4.70;99.90
15241;DHT22;7723;52.170;9.978;2023-03-01T02:26:18;-3.80;99.90
15241;DHT22;7723;52.170;9.978;2023-03-01T02:28:47;-4.60;99.90
15241;DHT22;7723;52.170;9.978;2023-03-01T02:31:18;-4.90;99.90
15241;DHT22;7723;52.170;9.978;2023-03-01T02:34:04;-4.80;99.90
15241;DHT22;7723;52.170;9.978;2023-03-01T02:36:35;-5.00;99.90
15241;DHT22;7723;52.170;9.978;2023-03-01T02:39:05;-5.10;99.90
15241;DHT22;7723;52.170;9.978;2023-03-01T02:41:36;-5.00;99.90
15241;DHT22;7723;52.170;9.978;2023-03-01T02:44:05;-5.10;99.90
15241;DHT22;7723;52.170;9.978;2023-03-01T02:46:35;-5.00;99.90
15241;DHT22;7723;52.170;9.978;2023-03-01T02:49:18;-5.00;99.90
15241;DHT22;7723;52.170;9.978;2023-03-01T02:51:52;-4.30;99.90
15241;DHT22;7723;52.170;9.978;2023-03-01T02:54:26;-5.00;99.90
15241;DHT22;7723;52.170;9.978;2023-03-01T02:56:55;-5.10;99.90
15241;DHT22;7723;52.170;9.978;2023-03-01T02:59:26;-5.10;99.90
15241;DHT22;7723;52.170;9.978;2023-03-01T03:01:55;-4.70;99.90
15241;DHT22;7723;52.170;9.978;2023-03-01T03:04:22;-5.10;99.90
15241;DHT22;7723;52.170;9.978;2023-03-01T03:06:50;-4.70;99.90
15241;DHT22;7723;52.170;9.978;2023-03-01T03:09:18;-5.10;99.90
15241;DHT22;7723;52.170;9.978;2023-03-01T03:11:46;-5.20;99.90
15241;DHT22;7723;52.170;9.978;2023-03-01T03:14:15;-5.10;99.90
15241;DHT22;7723;52.170;9.978;2023-03-01T03:16:46;-5.00;99.90
15241;DHT22;7723;52.170;9.978;2023-03-01T03:19:13;-5.10;99.90
15241;DHT22;7723;52.170;9.978;2023-03-01T03:21:42;-4.80;99.90
15241;DHT22;7723;52.170;9.978;2023-03-01T03:24:09;-5.20;99.90
15241;DHT22;7723;52.170;9.978;2023-03-01T03:26:36;-5.30;99.90
15241;DHT22;7723;52.170;9.978;2023-03-01T03:29:04;-5.30;99.90
15241;DHT22;7723;52.170;9.978;2023-03-01T03:31:31;-5.30;99.90
15241;DHT22;7723;52.170;9.978;2023-03-01T03:33:59;-5.20;99.90
15241;DHT22;7723;52.170;9.978;2023-03-01T03:36:26;-5.10;99.90
15241;DHT22;7723;52.170;9.978;2023-03-01T03:38:54;-5.30;99.90
15241;DHT22;7723;52.170;9.978;2023-03-01T03:41:21;-4.90;99.90
15241;DHT22;7723;52.170;9.978;2023-03-01T03:43:48;-5.10;99.90
15241;DHT22;7723;52.170;9.978;2023-03-01T03:46:15;-5.10;99.90
15241;DHT22;7723;52.170;9.978;2023-03-01T03:48:43;-4.40;99.90
15241;DHT22;7723;52.170;9.978;2023-03-01T03:51:13;-5.10;99.90
15241;DHT22;7723;52.170;9.978;2023-03-01T03:53:41;-5.20;99.90
15241;DHT22;7723;52.170;9.978;2023-03-01T03:56:08;-5.10;99.90
15241;DHT22;7723;52.170;9.978;2023-03-01T03:58:36;-5.20;99.90
15241;DHT22;7723;52.170;9.978;2023-03-01T04:01:04;-5.00;99.90
15241;DHT22;7723;52.170;9.978;2023-03-01T04:03:31;-5.20;99.90
15241;DHT22;7723;52.170;9.978;2023-03-01T04:05:59;-5.10;99.90
15241;DHT22;7723;52.170;9.978;2023-03-01T04:08:28;-5.30;99.90
15241;DHT22;7723;52.170;9.978;2023-03-01T04:11:00;-5.30;99.90
15241;DHT22;7723;52.170;9.978;2023-03-01T04:13:49;-4.80;99.90
15241;DHT22;7723;52.170;9.978;2023-03-01T04:16:16;-5.20;99.90
15241;DHT22;7723;52.170;9.978;2023-03-01T04:18:44;-5.00;99.90
15241;DHT22;7723;52.170;9.978;2023-03-01T04:21:12;-5.30;99.90
15241;DHT22;7723;52.170;9.978;2023-03-01T04:23:40;-4.50;99.90
15241;DHT22;7723;52.170;9.978;2023-03-01T04:26:08;-5.00;99.90
15241;DHT22;7723;52.170;9.978;2023-03-01T04:28:37;-5.30;99.90
15241;DHT22;7723;52.170;9.978;2023-03-01T04:31:07;-5.40;99.90
15241;DHT22;7723;52.170;9.978;2023-03-01T04:33:40;-5.10;99.90
15241;DHT22;7723;52.170;9.978;2023-03-01T04:38:36;-5.50;99.90
15241;DHT22;7723;52.170;9.978;2023-03-01T04:41:06;-5.50;99.90
15241;DHT22;7723;52.170;9.978;2023-03-01T04:43:34;-5.50;99.90
15241;DHT22;7723;52.170;9.978;2023-03-01T04:46:02;-5.50;99.90
15241;DHT22;7723;52.170;9.978;2023-03-01T04:48:30;-5.50;99.90
15241;DHT22;7723;52.170;9.978;2023-03-01T04:50:58;-4.60;99.90
15241;DHT22;7723;52.170;9.978;2023-03-01T04:53:26;-5.50;99.90
15241;DHT22;7723;52.170;9.978;2023-03-01T04:55:54;-5.20;99.90
15241;DHT22;7723;52.170;9.978;2023-03-01T04:58:23;-5.50;99.90
15241;DHT22;7723;52.170;9.978;2023-03-01T05:00:50;-5.50;99.90
15241;DHT22;7723;52.170;9.978;2023-03-01T05:03:19;-5.50;99.90
15241;DHT22;7723;52.170;9.978;2023-03-01T05:05:50;-5.50;99.90
15241;DHT22;7723;52.170;9.978;2023-03-01T05:08:19;-5.60;99.90
15241;DHT22;7723;52.170;9.978;2023-03-01T05:10:49;-5.70;99.90
15241;DHT22;7723;52.170;9.978;2023-03-01T05:13:16;-5.90;99.90
15241;DHT22;7723;52.170;9.978;2023-03-01T05:15:54;-5.90;99.90
15241;DHT22;7723;52.170;9.978;2023-03-01T05:18:22;-5.80;99.90
15241;DHT22;7723;52.170;9.978;2023-03-01T05:20:51;-5.60;99.90
15241;DHT22;7723;52.170;9.978;2023-03-01T05:23:22;-5.80;99.90
15241;DHT22;7723;52.170;9.978;2023-03-01T05:25:49;-5.70;99.90
15241;DHT22;7723;52.170;9.978;2023-03-01T05:28:19;-5.60;99.90
15241;DHT22;7723;52.170;9.978;2023-03-01T05:30:47;-5.70;99.90
15241;DHT22;7723;52.170;9.978;2023-03-01T05:33:18;-4.80;99.90
15241;DHT22;7723;52.170;9.978;2023-03-01T05:35:48;-5.60;99.90
15241;DHT22;7723;52.170;9.978;2023-03-01T05:38:16;-5.60;99.90
15241;DHT22;7723;52.170;9.978;2023-03-01T05:40:45;-5.60;99.90
15241;DHT22;7723;52.170;9.978;2023-03-01T05:43:14;-5.70;99.90
15241;DHT22;7723;52.170;9.978;2023-03-01T05:45:42;-5.80;99.90
15241;DHT22;7723;52.170;9.978;2023-03-01T05:48:11;-5.70;99.90
15241;DHT22;7723;52.170;9.978;2023-03-01T05:50:42;-5.90;99.90
15241;DHT22;7723;52.170;9.978;2023-03-01T05:53:11;-6.10;99.90
15241;DHT22;7723;52.170;9.978;2023-03-01T05:55:39;-5.40;99.90
15241;DHT22;7723;52.170;9.978;2023-03-01T05:58:09;-5.50;99.90
15241;DHT22;7723;52.170;9.978;2023-03-01T06:00:36;-5.10;99.90
15241;DHT22;7723;52.170;9.978;2023-03-01T06:03:04;-5.40;99.90
15241;DHT22;7723;52.170;9.978;2023-03-01T06:05:31;-4.70;99.90
15241;DHT22;7723;52.170;9.978;2023-03-01T06:08:00;-5.10;99.90
15241;DHT22;7723;52.170;9.978;2023-03-01T06:10:28;-5.50;99.90
15241;DHT22;7723;52.170;9.978;2023-03-01T06:12:56;-5.60;99.90
15241;DHT22;7723;52.170;9.978;2023-03-01T06:15:24;-5.60;99.90
15241;DHT22;7723;52.170;9.978;2023-03-01T06:17:53;-5.40;99.90
15241;DHT22;7723;52.170;9.978;2023-03-01T06:20:21;-5.40;99.90
15241;DHT22;7723;52.170;9.978;2023-03-01T06:22:49;-5.20;99.90
15241;DHT22;7723;52.170;9.978;2023-03-01T06:25:20;-5.50;99.90
15241;DHT22;7723;52.170;9.978;2023-03-01T06:27:48;-4.80;99.90
15241;DHT22;7723;52.170;9.978;2023-03-01T06:30:16;-5.40;99.90
15241;DHT22;7723;52.170;9.978;2023-03-01T06:32:44;-5.30;99.90
15241;DHT22;7723;52.170;9.978;2023-03-01T06:35:12;-5.10;99.90
15241;DHT22;7723;52.170;9.978;2023-03-01T06:37:40;-5.20;99.90
15241;DHT22;7723;52.170;9.978;2023-03-01T06:40:09;-4.50;99.90
15241;DHT22;7723;52.170;9.978;2023-03-01T06:42:40;-5.20;99.90
15241;DHT22;7723;52.170;9.978;2023-03-01T06:45:09;-5.30;99.90
15241;DHT22;7723;52.170;9.978;2023-03-01T06:47:37;-5.40;99.90
15241;DHT22;7723;52.170;9.978;2023-03-01T06:50:04;-5.30;99.90
15241;DHT22;7723;52.170;9.978;2023-03-01T06:52:31;-5.20;99.90
15241;DHT22;7723;52.170;9.978;2023-03-01T06:54:58;-4.60;99.90
15241;DHT22;7723;52.170;9.978;2023-03-01T06:57:26;-4.50;99.90
15241;DHT22;7723;52.170;9.978;2023-03-01T06:59:55;-3.80;99.90
15241;DHT22;7723;52.170;9.978;2023-03-01T07:02:23;-3.50;99.90
15241;DHT22;7723;52.170;9.978;2023-03-01T07:04:50;-3.20;99.90
15241;DHT22;7723;52.170;9.978;2023-03-01T07:07:18;-2.90;99.90
15241;DHT22;7723;52.170;9.978;2023-03-01T07:09:45;-2.60;99.90
15241;DHT22;7723;52.170;9.978;2023-03-01T07:12:13;-2.10;99.90
15241;DHT22;7723;52.170;9.978;2023-03-01T07:14:40;-1.60;99.90
15241;DHT22;7723;52.170;9.978;2023-03-01T07:17:08;-1.20;99.90
15241;DHT22;7723;52.170;9.978;2023-03-01T07:19:35;-1.00;99.90
15241;DHT22;7723;52.170;9.978;2023-03-01T07:22:03;-0.90;99.90
15241;DHT22;7723;52.170;9.978;2023-03-01T07:24:33;-0.70;99.90
15241;DHT22;7723;52.170;9.978;2023-03-01T07:27:00;-0.30;99.90
15241;DHT22;7723;52.170;9.978;2023-03-01T07:29:27;0.10;99.90
15241;DHT22;7723;52.170;9.978;2023-03-01T07:31:55;0.30;99.90
15241;DHT22;7723;52.170;9.978;2023-03-01T07:34:24;0.90;99.90
15241;DHT22;7723;52.170;9.978;2023-03-01T07:36:51;1.30;99.90
15241;DHT22;7723;52.170;9.978;2023-03-01T07:39:18;1.60;99.90
15241;DHT22;7723;52.170;9.978;2023-03-01T07:41:45;1.70;99.90
15241;DHT22;7723;52.170;9.978;2023-03-01T07:44:12;2.10;99.90
15241;DHT22;7723;52.170;9.978;2023-03-01T07:46:41;2.50;99.90
15241;DHT22;7723;52.170;9.978;2023-03-01T07:49:08;3.10;99.90
15241;DHT22;7723;52.170;9.978;2023-03-01T07:51:36;3.40;99.90
15241;DHT22;7723;52.170;9.978;2023-03-01T07:54:04;3.50;99.90
15241;DHT22;7723;52.170;9.978;2023-03-01T07:56:31;3.90;99.90
15241;DHT22;7723;52.170;9.978;2023-03-01T07:58:59;4.10;99.90
15241;DHT22;7723;52.170;9.978;2023-03-01T08:01:26;4.60;99.90
15241;DHT22;7723;52.170;9.978;2023-03-01T08:03:53;5.10;99.90
15241;DHT22;7723;52.170;9.978;2023-03-01T08:06:20;5.30;99.90
15241;DHT22;7723;52.170;9.978;2023-03-01T08:08:49;5.70;99.90
15241;DHT22;7723;52.170;9.978;2023-03-01T08:11:16;5.20;99.90
15241;DHT22;7723;52.170;9.978;2023-03-01T08:13:43;5.30;99.90
15241;DHT22;7723;52.170;9.978;2023-03-01T08:16:12;5.50;57.90
15241;DHT22;7723;52.170;9.978;2023-03-01T08:18:40;5.60;20.70
15241;DHT22;7723;52.170;9.978;2023-03-01T08:21:09;5.50;1.00
15241;DHT22;7723;52.170;9.978;2023-03-01T08:23:37;5.60;1.00
15241;DHT22;7723;52.170;9.978;2023-03-01T08:26:08;5.00;1.00
15241;DHT22;7723;52.170;9.978;2023-03-01T08:28:35;4.20;1.00
15241;DHT22;7723;52.170;9.978;2023-03-01T08:31:03;4.10;1.00
15241;DHT22;7723;52.170;9.978;2023-03-01T08:33:30;4.00;1.00
15241;DHT22;7723;52.170;9.978;2023-03-01T08:36:04;4.60;1.00
15241;DHT22;7723;52.170;9.978;2023-03-01T08:38:32;5.30;1.00
15241;DHT22;7723;52.170;9.978;2023-03-01T08:41:00;6.10;1.00
15241;DHT22;7723;52.170;9.978;2023-03-01T08:43:29;6.30;1.00
15241;DHT22;7723;52.170;9.978;2023-03-01T08:45:56;6.80;1.00
15241;DHT22;7723;52.170;9.978;2023-03-01T08:48:23;6.60;1.00
15241;DHT22;7723;52.170;9.978;2023-03-01T08:50:51;6.10;1.00
15241;DHT22;7723;52.170;9.978;2023-03-01T08:53:18;6.20;1.00
15241;DHT22;7723;52.170;9.978;2023-03-01T08:55:45;6.20;1.00
15241;DHT22;7723;52.170;9.978;2023-03-01T08:58:12;6.20;1.00
15241;DHT22;7723;52.170;9.978;2023-03-01T09:00:40;7.00;1.00
15241;DHT22;7723;52.170;9.978;2023-03-01T09:03:07;7.30;1.00
15241;DHT22;7723;52.170;9.978;2023-03-01T09:05:35;7.30;1.00
15241;DHT22;7723;52.170;9.978;2023-03-01T09:08:02;7.40;1.00
15241;DHT22;7723;52.170;9.978;2023-03-01T09:10:29;6.90;1.00
15241;DHT22;7723;52.170;9.978;2023-03-01T09:12:56;6.50;1.00
15241;DHT22;7723;52.170;9.978;2023-03-01T09:15:24;6.60;1.00
15241;DHT22;7723;52.170;9.978;2023-03-01T09:17:52;6.60;1.00
15241;DHT22;7723;52.170;9.978;2023-03-01T09:20:19;6.10;1.00
15241;DHT22;7723;52.170;9.978;2023-03-01T09:22:46;6.10;1.00
15241;DHT22;7723;52.170;9.978;2023-03-01T09:25:14;6.30;1.00
15241;DHT22;7723;52.170;9.978;2023-03-01T09:27:41;6.20;1.00
15241;DHT22;7723;52.170;9.978;2023-03-01T09:30:10;6.50;1.00
15241;DHT22;7723;52.170;9.978;2023-03-01T09:32:37;6.90;1.00
15241;DHT22;7723;52.170;9.978;2023-03-01T09:35:09;6.80;1.00
15241;DHT22;7723;52.170;9.978;2023-03-01T09:37:37;6.80;1.00
15241;DHT22;7723;52.170;9.978;2023-03-01T09:40:07;7.20;1.00
15241;DHT22;7723;52.170;9.978;2023-03-01T09:42:48;7.40;1.00
15241;DHT22;7723;52.170;9.978;2023-03-01T09:45:27;7.10;1.00
15241;DHT22;7723;52.170;9.978;2023-03-01T09:47:56;7.00;1.00
15241;DHT22;7723;52.170;9.978;2023-03-01T09:50:27;7.30;1.00
15241;DHT22;7723;52.170;9.978;2023-03-01T09:53:01;6.10;1.00
15241;DHT22;7723;52.170;9.978;2023-03-01T09:55:32;6.70;1.00
15241;DHT22;7723;52.170;9.978;2023-03-01T09:58:06;5.90;1.00
15241;DHT22;7723;52.170;9.978;2023-03-01T10:00:43;5.70;1.00
15241;DHT22;7723;52.170;9.978;2023-03-01T10:03:16;5.10;1.00
15241;DHT22;7723;52.170;9.978;2023-03-01T10:06:03;5.00;1.00
15241;DHT22;7723;52.170;9.978;2023-03-01T10:08:36;5.10;1.00
15241;DHT22;7723;52.170;9.978;2023-03-01T10:11:05;5.30;1.00
15241;DHT22;7723;52.170;9.978;2023-03-01T10:13:47;5.90;1.00
15241;DHT22;7723;52.170;9.978;2023-03-01T10:16:23;6.30;1.00
15241;DHT22;7723;52.170;9.978;2023-03-01T10:18:57;7.00;1.00
15241;DHT22;7723;52.170;9.978;2023-03-01T10:21:27;7.00;1.00
15241;DHT22;7723;52.170;9.978;2023-03-01T10:24:04;6.30;1.00
15241;DHT22;7723;52.170;9.978;2023-03-01T10:26:50;7.30;1.00
15241;DHT22;7723;52.170;9.978;2023-03-01T10:29:18;7.10;1.00
15241;DHT22;7723;52.170;9.978;2023-03-01T10:31:51;6.60;1.00
15241;DHT22;7723;52.170;9.978;2023-03-01T10:34:22;5.70;1.00
15241;DHT22;7723;52.170;9.978;2023-03-01T10:36:57;5.30;1.00
15241;DHT22;7723;52.170;9.978;2023-03-01T10:39:26;5.20;1.00
15241;DHT22;7723;52.170;9.978;2023-03-01T10:41:57;5.30;1.00
15241;DHT22;7723;52.170;9.978;2023-03-01T10:44:40;5.00;1.00
15241;DHT22;7723;52.170;9.978;2023-03-01T10:47:14;4.40;1.00
15241;DHT22;7723;52.170;9.978;2023-03-01T10:49:54;4.70;1.00
15241;DHT22;7723;52.170;9.978;2023-03-01T10:52:27;4.20;1.00
15241;DHT22;7723;52.170;9.978;2023-03-01T10:54:56;4.40;1.00
15241;DHT22;7723;52.170;9.978;2023-03-01T10:57:32;4.30;1.00
15241;DHT22;7723;52.170;9.978;2023-03-01T11:00:19;4.60;1.00
15241;DHT22;7723;52.170;9.978;2023-03-01T11:02:50;4.40;1.00
15241;DHT22;7723;52.170;9.978;2023-03-01T11:05:20;4.30;1.00
15241;DHT22;7723;52.170;9.978;2023-03-01T11:07:53;4.60;1.00
15241;DHT22;7723;52.170;9.978;2023-03-01T11:10:23;4.60;1.00
15241;DHT22;7723;52.170;9.978;2023-03-01T11:12:52;4.70;1.00
15241;DHT22;7723;52.170;9.978;2023-03-01T11:15:22;4.50;1.00
15241;DHT22;7723;52.170;9.978;2023-03-01T11:17:50;4.70;1.00
15241;DHT22;7723;52.170;9.978;2023-03-01T11:20:25;4.80;1.00
15241;DHT22;7723;52.170;9.978;2023-03-01T11:22:55;4.80;1.00
15241;DHT22;7723;52.170;9.978;2023-03-01T11:25:25;4.90;1.00
15241;DHT22;7723;52.170;9.978;2023-03-01T11:27:54;4.90;1.00
15241;DHT22;7723;52.170;9.978;2023-03-01T11:30:26;4.60;1.00
15241;DHT22;7723;52.170;9.978;2023-03-01T11:33:04;4.50;1.00
15241;DHT22;7723;52.170;9.978;2023-03-01T11:35:35;4.60;1.00
15241;DHT22;7723;52.170;9.978;2023-03-01T11:38:19;4.30;1.00
15241;DHT22;7723;52.170;9.978;2023-03-01T11:40:52;4.30;1.00
15241;DHT22;7723;52.170;9.978;2023-03-01T11:43:28;4.50;1.00
15241;DHT22;7723;52.170;9.978;2023-03-01T11:46:21;4.40;1.00
15241;DHT22;7723;52.170;9.978;2023-03-01T11:48:59;4.60;1.00
15241;DHT22;7723;52.170;9.978;2023-03-01T11:51:41;4.60;1.00
15241;DHT22;7723;52.170;9.978;2023-03-01T11:54:21;4.50;1.00
15241;DHT22;7723;52.170;9.978;2023-03-01T11:56:57;4.60;1.00
15241;DHT22;7723;52.170;9.978;2023-03-01T11:59:50;4.70;1.00
15241;DHT22;7723;52.170;9.978;2023-03-01T12:02:37;4.90;1.00
15241;DHT22;7723;52.170;9.978;2023-03-01T12:05:20;4.80;1.00
15241;DHT22;7723;52.170;9.978;2023-03-01T12:07:54;5.00;1.00
15241;DHT22;7723;52.170;9.978;2023-03-01T12:10:27;4.80;1.00
15241;DHT22;7723;52.170;9.978;2023-03-01T12:13:04;4.90;1.00
15241;DHT22;7723;52.170;9.978;2023-03-01T12:16:03;3.40;1.00
15241;DHT22;7723;52.170;9.978;2023-03-01T12:19:04;4.80;1.00
15241;DHT22;7723;52.170;9.978;2023-03-01T12:21:45;4.70;1.00
15241;DHT22;7723;52.170;9.978;2023-03-01T12:24:44;4.90;1.00
15241;DHT22;7723;52.170;9.978;2023-03-01T12:27:34;5.00;1.00
15241;DHT22;7723;52.170;9.978;2023-03-01T12:30:21;5.00;1.00
15241;DHT22;7723;52.170;9.978;2023-03-01T12:33:01;5.10;1.00
15241;DHT22;7723;52.170;9.978;2023-03-01T12:35:39;5.00;1.00
15241;DHT22;7723;52.170;9.978;2023-03-01T12:38:23;5.10;1.00
15241;DHT22;7723;52.170;9.978;2023-03-01T12:41:11;5.20;1.00
15241;DHT22;7723;52.170;9.978;2023-03-01T12:43:51;5.10;1.00
15241;DHT22;7723;52.170;9.978;2023-03-01T12:46:28;5.00;1.00
15241;DHT22;7723;52.170;9.978;2023-03-01T12:49:05;5.00;1.00
15241;DHT22;7723;52.170;9.978;2023-03-01T12:51:36;5.10;1.00
15241;DHT22;7723;52.170;9.978;2023-03-01T12:54:11;5.10;1.00
15241;DHT22;7723;52.170;9.978;2023-03-01T12:56:41;5.00;1.00
15241;DHT22;7723;52.170;9.978;2023-03-01T12:59:17;5.10;1.00
15241;DHT22;7723;52.170;9.978;2023-03-01T13:01:49;5.20;1.00
15241;DHT22;7723;52.170;9.978;2023-03-01T13:04:28;5.20;1.00
15241;DHT22;7723;52.170;9.978;2023-03-01T13:07:21;5.20;1.00
15241;DHT22;7723;52.170;9.978;2023-03-01T13:09:55;5.20;1.00
15241;DHT22;7723;52.170;9.978;2023-03-01T13:12:49;5.40;1.00
15241;DHT22;7723;52.170;9.978;2023-03-01T13:15:32;5.30;1.00
15241;DHT22;7723;52.170;9.978;2023-03-01T13:18:00;5.30;1.00
15241;DHT22;7723;52.170;9.978;2023-03-01T13:20:32;5.40;1.00
15241;DHT22;7723;52.170;9.978;2023-03-01T13:23:06;5.40;1.00
15241;DHT22;7723;52.170;9.978;2023-03-01T13:25:34;5.40;1.00
15241;DHT22;7723;52.170;9.978;2023-03-01T13:28:38;5.60;1.00
15241;DHT22;7723;52.170;9.978;2023-03-01T13:31:10;5.60;1.00
15241;DHT22;7723;52.170;9.978;2023-03-01T13:33:43;5.60;1.00
15241;DHT22;7723;52.170;9.978;2023-03-01T13:36:11;5.70;1.00
15241;DHT22;7723;52.170;9.978;2023-03-01T13:39:01;5.70;1.00
15241;DHT22;7723;52.170;9.978;2023-03-01T13:41:49;5.60;1.00
15241;DHT22;7723;52.170;9.978;2023-03-01T13:44:21;5.50;1.00
15241;DHT22;7723;52.170;9.978;2023-03-01T13:46:56;5.50;1.00
15241;DHT22;7723;52.170;9.978;2023-03-01T13:49:27;5.70;1.00
15241;DHT22;7723;52.170;9.978;2023-03-01T13:51:55;5.70;1.00
15241;DHT22;7723;52.170;9.978;2023-03-01T13:54:26;5.70;1.00
15241;DHT22;7723;52.170;9.978;2023-03-01T13:56:55;5.60;1.00
15241;DHT22;7723;52.170;9.978;2023-03-01T13:59:23;5.60;1.00
15241;DHT22;7723;52.170;9.978;2023-03-01T14:01:58;5.60;1.00
15241;DHT22;7723;52.170;9.978;2023-03-01T14:04:27;5.70;1.00
15241;DHT22;7723;52.170;9.978;2023-03-01T14:07:10;5.70;1.00
15241;DHT22;7723;52.170;9.978;2023-03-01T14:09:40;5.70;1.00
15241;DHT22;7723;52.170;9.978;2023-03-01T14:12:17;5.60;1.00
15241;DHT22;7723;52.170;9.978;2023-03-01T14:14:52;5.60;1.00
15241;DHT22;7723;52.170;9.978;2023-03-01T14:17:39;5.70;1.00
15241;DHT22;7723;52.170;9.978;2023-03-01T14:20:15;5.90;1.00
15241;DHT22;7723;52.170;9.978;2023-03-01T14:22:44;5.70;1.00
15241;DHT22;7723;52.170;9.978;2023-03-01T14:25:25;5.70;1.00
15241;DHT22;7723;52.170;9.978;2023-03-01T14:27:59;5.80;1.00
15241;DHT22;7723;52.170;9.978;2023-03-01T14:30:31;5.90;1.00
15241;DHT22;7723;52.170;9.978;2023-03-01T14:33:01;5.90;1.00
15241;DHT22;7723;52.170;9.978;2023-03-01T14:35:31;5.80;1.00
15241;DHT22;7723;52.170;9.978;2023-03-01T14:38:00;5.80;1.00
15241;DHT22;7723;52.170;9.978;2023-03-01T14:40:28;5.70;1.00
15241;DHT22;7723;52.170;9.978;2023-03-01T14:42:58;5.70;1.00
15241;DHT22;7723;52.170;9.978;2023-03-01T14:45:28;5.70;1.00
15241;DHT22;7723;52.170;9.978;2023-03-01T14:48:00;5.90;1.00
15241;DHT22;7723;52.170;9.978;2023-03-01T14:50:30;5.90;1.00
15241;DHT22;7723;52.170;9.978;2023-03-01T14:53:00;5.90;1.00
15241;DHT22;7723;52.170;9.978;2023-03-01T14:55:30;4.60;1.00
15241;DHT22;7723;52.170;9.978;2023-03-01T14:57:58;5.80;1.00
15241;DHT22;7723;52.170;9.978;2023-03-01T15:00:28;5.90;1.00
15241;DHT22;7723;52.170;9.978;2023-03-01T15:02:56;5.90;1.00
15241;DHT22;7723;52.170;9.978;2023-03-01T15:05:29;6.00;1.00
15241;DHT22;7723;52.170;9.978;2023-03-01T15:07:58;5.90;1.00
15241;DHT22;7723;52.170;9.978;2023-03-01T15:10:28;5.90;1.00
15241;DHT22;7723;52.170;9.978;2023-03-01T15:12:56;5.80;1.00
15241;DHT22;7723;52.170;9.978;2023-03-01T15:15:39;5.80;1.00
15241;DHT22;7723;52.170;9.978;2023-03-01T15:18:18;5.80;1.00
15241;DHT22;7723;52.170;9.978;2023-03-01T15:20:49;5.80;1.00
15241;DHT22;7723;52.170;9.978;2023-03-01T15:23:21;5.70;1.00
15241;DHT22;7723;52.170;9.978;2023-03-01T15:25:50;5.70;1.00
15241;DHT22;7723;52.170;9.978;2023-03-01T15:28:25;5.70;1.00
15241;DHT22;7723;52.170;9.978;2023-03-01T15:30:55;5.60;1.00
15241;DHT22;7723;52.170;9.978;2023-03-01T15:33:30;5.60;1.00
15241;DHT22;7723;52.170;9.978;2023-03-01T15:35:59;5.60;1.00
15241;DHT22;7723;52.170;9.978;2023-03-01T15:38:29;5.50;1.00
15241;DHT22;7723;52.170;9.978;2023-03-01T15:40:59;5.50;1.00
15241;DHT22;7723;52.170;9.978;2023-03-01T15:43:41;5.50;1.00
15241;DHT22;7723;52.170;9.978;2023-03-01T15:46:18;5.50;1.00
15241;DHT22;7723;52.170;9.978;2023-03-01T15:48:48;5.40;1.00
15241;DHT22;7723;52.170;9.978;2023-03-01T15:51:22;5.40;1.00
15241;DHT22;7723;52.170;9.978;2023-03-01T15:53:51;5.40;1.00
15241;DHT22;7723;52.170;9.978;2023-03-01T15:56:19;5.30;1.00
15241;DHT22;7723;52.170;9.978;2023-03-01T15:58:46;5.30;1.00
15241;DHT22;7723;52.170;9.978;2023-03-01T16:01:15;5.20;1.00
15241;DHT22;7723;52.170;9.978;2023-03-01T16:03:43;5.20;1.00
15241;DHT22;7723;52.170;9.978;2023-03-01T16:06:11;5.20;1.00
15241;DHT22;7723;52.170;9.978;2023-03-01T16:08:40;5.10;1.00
15241;DHT22;7723;52.170;9.978;2023-03-01T16:11:14;4.90;1.00
15241;DHT22;7723;52.170;9.978;2023-03-01T16:13:42;4.90;1.00
15241;DHT22;7723;52.170;9.978;2023-03-01T16:16:10;4.90;1.00
15241;DHT22;7723;52.170;9.978;2023-03-01T16:18:41;4.80;1.00
15241;DHT22;7723;52.170;9.978;2023-03-01T16:21:16;4.80;1.00
15241;DHT22;7723;52.170;9.978;2023-03-01T16:23:46;4.80;1.00
15241;DHT22;7723;52.170;9.978;2023-03-01T16:26:13;4.70;1.00
15241;DHT22;7723;52.170;9.978;2023-03-01T16:28:41;4.60;1.00
15241;DHT22;7723;52.170;9.978;2023-03-01T16:31:08;4.50;1.00